sensor_id;sensor_type;location;lat;lon;timestamp;P1;durP1;ratioP1;P2;durP2;ratioP2
37647;SDS011;23490;53.656;10.076;2023-11-19T00:01:00;8.63;;;3.55;;
37647;SDS011;23490;53.656;10.076;2023-11-19T00:03:26;9.23;;;3.80;;
37647;SDS011;23490;53.656;10.076;2023-11-19T00:05:51;12.20;;;4.25;;
37647;SDS011;23490;53.656;10.076;2023-11-19T00:08:17;7.53;;;3.55;;
37647;SDS011;23490;53.656;10.076;2023-11-19T00:10:42;7.32;;;3.88;;
37647;SDS011;23490;53.656;10.076;2023-11-19T00:13:07;8.65;;;3.30;;
37647;SDS011;23490;53.656;10.076;2023-11-19T00:15:33;6.57;;;3.00;;
37647;SDS011;23490;53.656;10.076;2023-11-19T00:17:58;7.28;;;3.25;;
37647;SDS011;23490;53.656;10.076;2023-11-19T00:20:24;6.55;;;3.17;;
37647;SDS011;23490;53.656;10.076;2023-11-19T00:22:49;8.38;;;3.28;;
37647;SDS011;23490;53.656;10.076;2023-11-19T00:25:18;5.88;;;2.40;;
37647;SDS011;23490;53.656;10.076;2023-11-19T00:27:44;5.38;;;2.60;;
37647;SDS011;23490;53.656;10.076;2023-11-19T00:30:12;7.47;;;2.45;;
37647;SDS011;23490;53.656;10.076;2023-11-19T00:32:38;4.90;;;2.47;;
37647;SDS011;23490;53.656;10.076;2023-11-19T00:35:08;4.80;;;2.42;;
37647;SDS011;23490;53.656;10.076;2023-11-19T00:37:35;7.45;;;2.35;;
37647;SDS011;23490;53.656;10.076;2023-11-19T00:40:01;5.13;;;2.38;;
37647;SDS011;23490;53.656;10.076;2023-11-19T00:42:30;5.38;;;2.28;;
37647;SDS011;23490;53.656;10.076;2023-11-19T00:44:56;4.45;;;1.92;;
37647;SDS011;23490;53.656;10.076;2023-11-19T00:47:21;5.38;;;2.30;;
37647;SDS011;23490;53.656;10.076;2023-11-19T00:49:47;5.25;;;2.45;;
37647;SDS011;23490;53.656;10.076;2023-11-19T00:52:16;4.63;;;2.03;;
37647;SDS011;23490;53.656;10.076;2023-11-19T00:54:42;4.38;;;1.75;;
37647;SDS011;23490;53.656;10.076;2023-11-19T00:57:08;4.40;;;1.90;;
37647;SDS011;23490;53.656;10.076;2023-11-19T00:59:33;5.18;;;1.88;;
37647;SDS011;23490;53.656;10.076;2023-11-19T01:01:59;3.63;;;2.03;;
37647;SDS011;23490;53.656;10.076;2023-11-19T01:04:28;4.07;;;1.70;;
37647;SDS011;23490;53.656;10.076;2023-11-19T01:06:54;4.30;;;2.10;;
37647;SDS011;23490;53.656;10.076;2023-11-19T01:09:19;4.50;;;1.58;;
37647;SDS011;23490;53.656;10.076;2023-11-19T01:11:45;4.13;;;1.95;;
37647;SDS011;23490;53.656;10.076;2023-11-19T01:14:10;2.95;;;1.40;;
37647;SDS011;23490;53.656;10.076;2023-11-19T01:16:36;2.45;;;1.10;;
37647;SDS011;23490;53.656;10.076;2023-11-19T01:19:01;2.88;;;1.30;;
37647;SDS011;23490;53.656;10.076;2023-11-19T01:21:30;3.92;;;1.80;;
37647;SDS011;23490;53.656;10.076;2023-11-19T01:23:55;4.32;;;1.83;;
37647;SDS011;23490;53.656;10.076;2023-11-19T01:26:22;3.05;;;1.38;;
37647;SDS011;23490;53.656;10.076;2023-11-19T01:28:47;3.42;;;1.30;;
37647;SDS011;23490;53.656;10.076;2023-11-19T01:31:16;2.72;;;1.20;;
37647;SDS011;23490;53.656;10.076;2023-11-19T01:33:42;4.50;;;1.40;;
37647;SDS011;23490;53.656;10.076;2023-11-19T01:36:07;2.97;;;1.38;;
37647;SDS011;23490;53.656;10.076;2023-11-19T01:38:33;3.83;;;1.35;;
37647;SDS011;23490;53.656;10.076;2023-11-19T01:40:59;2.10;;;1.20;;
37647;SDS011;23490;53.656;10.076;2023-11-19T01:43:30;2.65;;;1.23;;
37647;SDS011;23490;53.656;10.076;2023-11-19T01:46:04;3.10;;;1.48;;
37647;SDS011;23490;53.656;10.076;2023-11-19T01:48:31;2.72;;;1.30;;
37647;SDS011;23490;53.656;10.076;2023-11-19T01:50:58;1.90;;;1.00;;
37647;SDS011;23490;53.656;10.076;2023-11-19T01:53:24;1.70;;;1.10;;
37647;SDS011;23490;53.656;10.076;2023-11-19T01:55:50;1.25;;;0.90;;
37647;SDS011;23490;53.656;10.076;2023-11-19T01:58:17;2.55;;;1.05;;
37647;SDS011;23490;53.656;10.076;2023-11-19T02:00:44;2.08;;;0.98;;
37647;SDS011;23490;53.656;10.076;2023-11-19T02:03:10;2.17;;;0.90;;
37647;SDS011;23490;53.656;10.076;2023-11-19T02:05:36;2.25;;;1.10;;
37647;SDS011;23490;53.656;10.076;2023-11-19T02:08:03;2.38;;;0.95;;
37647;SDS011;23490;53.656;10.076;2023-11-19T02:10:29;2.15;;;0.98;;
37647;SDS011;23490;53.656;10.076;2023-11-19T02:12:54;1.83;;;0.88;;
37647;SDS011;23490;53.656;10.076;2023-11-19T02:15:20;1.65;;;0.90;;
37647;SDS011;23490;53.656;10.076;2023-11-19T02:17:47;2.20;;;0.98;;
37647;SDS011;23490;53.656;10.076;2023-11-19T02:20:12;1.60;;;0.90;;
37647;SDS011;23490;53.656;10.076;2023-11-19T02:22:40;4.03;;;0.75;;
37647;SDS011;23490;53.656;10.076;2023-11-19T02:25:07;1.77;;;0.70;;
37647;SDS011;23490;53.656;10.076;2023-11-19T02:27:51;1.58;;;0.80;;
37647;SDS011;23490;53.656;10.076;2023-11-19T02:30:22;1.95;;;0.70;;
37647;SDS011;23490;53.656;10.076;2023-11-19T02:32:57;1.30;;;0.63;;
37647;SDS011;23490;53.656;10.076;2023-11-19T02:35:26;0.85;;;0.57;;
37647;SDS011;23490;53.656;10.076;2023-11-19T02:37:54;0.50;;;0.50;;
37647;SDS011;23490;53.656;10.076;2023-11-19T02:40:19;1.67;;;0.75;;
37647;SDS011;23490;53.656;10.076;2023-11-19T02:42:45;0.77;;;0.47;;
37647;SDS011;23490;53.656;10.076;2023-11-19T02:45:10;1.38;;;0.63;;
37647;SDS011;23490;53.656;10.076;2023-11-19T02:47:42;1.23;;;0.70;;
37647;SDS011;23490;53.656;10.076;2023-11-19T02:50:09;0.80;;;0.60;;
37647;SDS011;23490;53.656;10.076;2023-11-19T02:52:42;0.88;;;0.60;;
37647;SDS011;23490;53.656;10.076;2023-11-19T02:55:12;1.92;;;0.90;;
37647;SDS011;23490;53.656;10.076;2023-11-19T02:57:41;1.35;;;0.70;;
37647;SDS011;23490;53.656;10.076;2023-11-19T03:00:19;0.80;;;0.68;;
37647;SDS011;23490;53.656;10.076;2023-11-19T03:02:53;1.30;;;0.68;;
37647;SDS011;23490;53.656;10.076;2023-11-19T03:05:24;1.58;;;0.80;;
37647;SDS011;23490;53.656;10.076;2023-11-19T03:07:51;1.73;;;0.88;;
37647;SDS011;23490;53.656;10.076;2023-11-19T03:10:17;1.52;;;0.90;;
37647;SDS011;23490;53.656;10.076;2023-11-19T03:12:42;0.93;;;0.55;;
37647;SDS011;23490;53.656;10.076;2023-11-19T03:15:09;1.33;;;0.70;;
37647;SDS011;23490;53.656;10.076;2023-11-19T03:17:44;1.48;;;0.73;;
37647;SDS011;23490;53.656;10.076;2023-11-19T03:20:10;1.73;;;0.70;;
37647;SDS011;23490;53.656;10.076;2023-11-19T03:25:06;1.80;;;1.02;;
37647;SDS011;23490;53.656;10.076;2023-11-19T03:27:36;2.08;;;1.00;;
37647;SDS011;23490;53.656;10.076;2023-11-19T03:30:04;2.28;;;0.90;;
37647;SDS011;23490;53.656;10.076;2023-11-19T03:32:31;3.08;;;1.00;;
37647;SDS011;23490;53.656;10.076;2023-11-19T03:34:57;1.92;;;1.05;;
37647;SDS011;23490;53.656;10.076;2023-11-19T03:37:23;2.20;;;1.23;;
37647;SDS011;23490;53.656;10.076;2023-11-19T03:39:48;1.75;;;0.80;;
37647;SDS011;23490;53.656;10.076;2023-11-19T03:42:14;1.98;;;0.95;;
37647;SDS011;23490;53.656;10.076;2023-11-19T03:44:39;2.08;;;0.98;;
37647;SDS011;23490;53.656;10.076;2023-11-19T03:47:04;2.60;;;1.30;;
37647;SDS011;23490;53.656;10.076;2023-11-19T03:49:30;2.22;;;1.23;;
37647;SDS011;23490;53.656;10.076;2023-11-19T03:51:55;2.10;;;1.20;;
37647;SDS011;23490;53.656;10.076;2023-11-19T03:54:21;2.75;;;1.20;;
37647;SDS011;23490;53.656;10.076;2023-11-19T03:56:48;2.67;;;1.40;;
37647;SDS011;23490;53.656;10.076;2023-11-19T03:59:13;3.15;;;1.35;;
37647;SDS011;23490;53.656;10.076;2023-11-19T04:01:40;2.42;;;1.50;;
37647;SDS011;23490;53.656;10.076;2023-11-19T04:04:05;3.00;;;1.25;;
37647;SDS011;23490;53.656;10.076;2023-11-19T04:06:31;3.08;;;1.40;;
37647;SDS011;23490;53.656;10.076;2023-11-19T04:08:56;4.60;;;1.60;;
37647;SDS011;23490;53.656;10.076;2023-11-19T04:11:22;4.07;;;1.73;;
37647;SDS011;23490;53.656;10.076;2023-11-19T04:13:47;2.90;;;1.40;;
37647;SDS011;23490;53.656;10.076;2023-11-19T04:16:12;2.67;;;1.60;;
37647;SDS011;23490;53.656;10.076;2023-11-19T04:18:37;3.53;;;1.75;;
37647;SDS011;23490;53.656;10.076;2023-11-19T04:21:05;3.85;;;2.03;;
37647;SDS011;23490;53.656;10.076;2023-11-19T04:26:01;3.40;;;1.67;;
37647;SDS011;23490;53.656;10.076;2023-11-19T04:28:27;4.18;;;2.00;;
37647;SDS011;23490;53.656;10.076;2023-11-19T04:30:52;4.32;;;1.85;;
37647;SDS011;23490;53.656;10.076;2023-11-19T04:33:18;5.28;;;2.72;;
37647;SDS011;23490;53.656;10.076;2023-11-19T04:35:43;4.55;;;1.90;;
37647;SDS011;23490;53.656;10.076;2023-11-19T04:38:08;5.53;;;1.90;;
37647;SDS011;23490;53.656;10.076;2023-11-19T04:40:34;3.33;;;1.50;;
37647;SDS011;23490;53.656;10.076;2023-11-19T04:43:00;3.00;;;1.73;;
37647;SDS011;23490;53.656;10.076;2023-11-19T04:45:25;5.47;;;2.60;;
37647;SDS011;23490;53.656;10.076;2023-11-19T04:47:50;4.00;;;2.10;;
37647;SDS011;23490;53.656;10.076;2023-11-19T04:50:16;4.70;;;1.85;;
37647;SDS011;23490;53.656;10.076;2023-11-19T04:52:41;6.72;;;2.25;;
37647;SDS011;23490;53.656;10.076;2023-11-19T04:55:10;4.95;;;2.25;;
37647;SDS011;23490;53.656;10.076;2023-11-19T04:57:36;7.03;;;2.72;;
37647;SDS011;23490;53.656;10.076;2023-11-19T05:00:02;6.80;;;2.50;;
37647;SDS011;23490;53.656;10.076;2023-11-19T05:02:29;7.15;;;2.83;;
37647;SDS011;23490;53.656;10.076;2023-11-19T05:04:55;6.72;;;3.08;;
37647;SDS011;23490;53.656;10.076;2023-11-19T05:07:20;7.05;;;3.50;;
37647;SDS011;23490;53.656;10.076;2023-11-19T05:09:46;6.30;;;3.30;;
37647;SDS011;23490;53.656;10.076;2023-11-19T05:12:11;6.65;;;3.22;;
37647;SDS011;23490;53.656;10.076;2023-11-19T05:14:37;9.00;;;3.83;;
37647;SDS011;23490;53.656;10.076;2023-11-19T05:17:03;7.18;;;3.17;;
37647;SDS011;23490;53.656;10.076;2023-11-19T05:19:28;10.65;;;3.67;;
37647;SDS011;23490;53.656;10.076;2023-11-19T05:21:54;7.93;;;4.13;;
37647;SDS011;23490;53.656;10.076;2023-11-19T05:24:19;9.55;;;4.20;;
37647;SDS011;23490;53.656;10.076;2023-11-19T05:26:45;8.43;;;4.45;;
37647;SDS011;23490;53.656;10.076;2023-11-19T05:29:10;10.52;;;4.38;;
37647;SDS011;23490;53.656;10.076;2023-11-19T05:31:35;10.60;;;4.75;;
37647;SDS011;23490;53.656;10.076;2023-11-19T05:34:01;9.45;;;3.95;;
37647;SDS011;23490;53.656;10.076;2023-11-19T05:36:26;10.32;;;4.28;;
37647;SDS011;23490;53.656;10.076;2023-11-19T05:38:52;11.23;;;5.18;;
37647;SDS011;23490;53.656;10.076;2023-11-19T05:41:18;10.57;;;4.82;;
37647;SDS011;23490;53.656;10.076;2023-11-19T05:43:43;10.23;;;4.43;;
37647;SDS011;23490;53.656;10.076;2023-11-19T05:46:08;13.23;;;5.50;;
37647;SDS011;23490;53.656;10.076;2023-11-19T05:48:34;14.50;;;6.05;;
37647;SDS011;23490;53.656;10.076;2023-11-19T05:50:59;12.10;;;5.25;;
37647;SDS011;23490;53.656;10.076;2023-11-19T05:53:25;14.52;;;5.47;;
37647;SDS011;23490;53.656;10.076;2023-11-19T05:55:50;13.07;;;6.28;;
37647;SDS011;23490;53.656;10.076;2023-11-19T05:58:25;14.30;;;5.55;;
37647;SDS011;23490;53.656;10.076;2023-11-19T06:00:53;13.88;;;5.63;;
37647;SDS011;23490;53.656;10.076;2023-11-19T06:03:19;12.95;;;5.50;;
37647;SDS011;23490;53.656;10.076;2023-11-19T06:05:46;12.60;;;4.97;;
37647;SDS011;23490;53.656;10.076;2023-11-19T06:08:11;13.45;;;5.40;;
37647;SDS011;23490;53.656;10.076;2023-11-19T06:10:38;12.15;;;5.75;;
37647;SDS011;23490;53.656;10.076;2023-11-19T06:13:04;12.77;;;4.97;;
37647;SDS011;23490;53.656;10.076;2023-11-19T06:15:30;13.48;;;5.85;;
37647;SDS011;23490;53.656;10.076;2023-11-19T06:17:56;14.45;;;5.63;;
37647;SDS011;23490;53.656;10.076;2023-11-19T06:20:24;13.13;;;6.20;;
37647;SDS011;23490;53.656;10.076;2023-11-19T06:22:50;13.20;;;6.00;;
37647;SDS011;23490;53.656;10.076;2023-11-19T06:25:15;14.05;;;5.72;;
37647;SDS011;23490;53.656;10.076;2023-11-19T06:27:41;11.95;;;5.40;;
37647;SDS011;23490;53.656;10.076;2023-11-19T06:30:07;15.13;;;5.70;;
37647;SDS011;23490;53.656;10.076;2023-11-19T06:32:34;15.98;;;5.60;;
37647;SDS011;23490;53.656;10.076;2023-11-19T06:34:59;15.85;;;6.55;;
37647;SDS011;23490;53.656;10.076;2023-11-19T06:37:24;15.18;;;6.05;;
37647;SDS011;23490;53.656;10.076;2023-11-19T06:39:50;15.20;;;6.05;;
37647;SDS011;23490;53.656;10.076;2023-11-19T06:42:15;17.77;;;7.35;;
37647;SDS011;23490;53.656;10.076;2023-11-19T06:44:40;18.52;;;6.35;;
37647;SDS011;23490;53.656;10.076;2023-11-19T06:47:06;16.85;;;5.80;;
37647;SDS011;23490;53.656;10.076;2023-11-19T06:49:31;13.32;;;6.15;;
37647;SDS011;23490;53.656;10.076;2023-11-19T06:51:57;24.33;;;7.57;;
37647;SDS011;23490;53.656;10.076;2023-11-19T06:54:22;15.18;;;6.38;;
37647;SDS011;23490;53.656;10.076;2023-11-19T06:56:48;23.20;;;6.70;;
37647;SDS011;23490;53.656;10.076;2023-11-19T06:59:14;17.38;;;5.95;;
37647;SDS011;23490;53.656;10.076;2023-11-19T07:01:39;17.80;;;5.50;;
37647;SDS011;23490;53.656;10.076;2023-11-19T07:04:04;16.08;;;6.38;;
37647;SDS011;23490;53.656;10.076;2023-11-19T07:06:34;21.50;;;6.78;;
37647;SDS011;23490;53.656;10.076;2023-11-19T07:09:00;11.82;;;5.13;;
37647;SDS011;23490;53.656;10.076;2023-11-19T07:11:34;22.05;;;6.15;;
37647;SDS011;23490;53.656;10.076;2023-11-19T07:14:06;16.63;;;6.25;;
37647;SDS011;23490;53.656;10.076;2023-11-19T07:16:33;22.58;;;7.03;;
37647;SDS011;23490;53.656;10.076;2023-11-19T07:18:59;12.40;;;4.63;;
37647;SDS011;23490;53.656;10.076;2023-11-19T07:21:26;15.27;;;4.85;;
37647;SDS011;23490;53.656;10.076;2023-11-19T07:23:53;13.75;;;4.57;;
37647;SDS011;23490;53.656;10.076;2023-11-19T07:26:19;15.25;;;6.10;;
37647;SDS011;23490;53.656;10.076;2023-11-19T07:28:44;19.20;;;4.43;;
37647;SDS011;23490;53.656;10.076;2023-11-19T07:31:10;13.02;;;4.50;;
37647;SDS011;23490;53.656;10.076;2023-11-19T07:33:35;17.20;;;4.07;;
37647;SDS011;23490;53.656;10.076;2023-11-19T07:36:01;11.35;;;4.13;;
37647;SDS011;23490;53.656;10.076;2023-11-19T07:38:26;12.80;;;3.88;;
37647;SDS011;23490;53.656;10.076;2023-11-19T07:40:52;16.55;;;4.13;;
37647;SDS011;23490;53.656;10.076;2023-11-19T07:43:17;20.73;;;3.97;;
37647;SDS011;23490;53.656;10.076;2023-11-19T07:45:42;13.05;;;2.95;;
37647;SDS011;23490;53.656;10.076;2023-11-19T07:48:10;13.55;;;3.72;;
37647;SDS011;23490;53.656;10.076;2023-11-19T07:50:36;15.07;;;4.15;;
37647;SDS011;23490;53.656;10.076;2023-11-19T07:53:01;14.25;;;4.30;;
37647;SDS011;23490;53.656;10.076;2023-11-19T07:55:29;17.30;;;4.15;;
37647;SDS011;23490;53.656;10.076;2023-11-19T07:57:54;15.35;;;3.88;;
37647;SDS011;23490;53.656;10.076;2023-11-19T08:00:20;15.43;;;3.45;;
37647;SDS011;23490;53.656;10.076;2023-11-19T08:02:45;12.48;;;3.83;;
37647;SDS011;23490;53.656;10.076;2023-11-19T08:05:10;21.30;;;6.30;;
37647;SDS011;23490;53.656;10.076;2023-11-19T08:07:36;12.68;;;3.92;;
37647;SDS011;23490;53.656;10.076;2023-11-19T08:10:02;18.30;;;5.30;;
37647;SDS011;23490;53.656;10.076;2023-11-19T08:12:27;17.92;;;3.63;;
37647;SDS011;23490;53.656;10.076;2023-11-19T08:14:52;14.60;;;3.78;;
37647;SDS011;23490;53.656;10.076;2023-11-19T08:17:18;17.52;;;3.70;;
37647;SDS011;23490;53.656;10.076;2023-11-19T08:19:43;13.68;;;3.17;;
37647;SDS011;23490;53.656;10.076;2023-11-19T08:22:08;19.38;;;4.25;;
37647;SDS011;23490;53.656;10.076;2023-11-19T08:24:34;25.30;;;5.50;;
37647;SDS011;23490;53.656;10.076;2023-11-19T08:27:00;14.95;;;3.75;;
37647;SDS011;23490;53.656;10.076;2023-11-19T08:29:25;14.43;;;3.08;;
37647;SDS011;23490;53.656;10.076;2023-11-19T08:31:52;11.35;;;4.53;;
37647;SDS011;23490;53.656;10.076;2023-11-19T08:34:17;13.07;;;3.13;;
37647;SDS011;23490;53.656;10.076;2023-11-19T08:36:42;23.75;;;3.58;;
37647;SDS011;23490;53.656;10.076;2023-11-19T08:39:08;19.27;;;3.60;;
37647;SDS011;23490;53.656;10.076;2023-11-19T08:41:33;18.17;;;3.75;;
37647;SDS011;23490;53.656;10.076;2023-11-19T08:43:59;14.57;;;3.65;;
37647;SDS011;23490;53.656;10.076;2023-11-19T08:46:25;21.00;;;3.35;;
37647;SDS011;23490;53.656;10.076;2023-11-19T08:48:51;18.40;;;3.78;;
37647;SDS011;23490;53.656;10.076;2023-11-19T08:51:17;17.50;;;5.38;;
37647;SDS011;23490;53.656;10.076;2023-11-19T08:53:42;10.48;;;3.05;;
37647;SDS011;23490;53.656;10.076;2023-11-19T08:56:08;20.55;;;3.83;;
37647;SDS011;23490;53.656;10.076;2023-11-19T08:58:33;13.27;;;2.90;;
37647;SDS011;23490;53.656;10.076;2023-11-19T09:00:58;24.98;;;5.35;;
37647;SDS011;23490;53.656;10.076;2023-11-19T09:03:24;16.92;;;3.03;;
37647;SDS011;23490;53.656;10.076;2023-11-19T09:05:51;23.50;;;4.70;;
37647;SDS011;23490;53.656;10.076;2023-11-19T09:08:17;16.67;;;4.00;;
37647;SDS011;23490;53.656;10.076;2023-11-19T09:10:42;14.98;;;3.40;;
37647;SDS011;23490;53.656;10.076;2023-11-19T09:13:08;17.20;;;3.22;;
37647;SDS011;23490;53.656;10.076;2023-11-19T09:15:33;22.25;;;4.07;;
37647;SDS011;23490;53.656;10.076;2023-11-19T09:17:58;21.55;;;5.03;;
37647;SDS011;23490;53.656;10.076;2023-11-19T09:20:24;20.98;;;5.35;;
37647;SDS011;23490;53.656;10.076;2023-11-19T09:22:49;17.95;;;3.88;;
37647;SDS011;23490;53.656;10.076;2023-11-19T09:25:14;20.40;;;4.85;;
37647;SDS011;23490;53.656;10.076;2023-11-19T09:27:43;20.15;;;4.75;;
37647;SDS011;23490;53.656;10.076;2023-11-19T09:30:09;20.02;;;3.95;;
37647;SDS011;23490;53.656;10.076;2023-11-19T09:32:35;19.52;;;4.32;;
37647;SDS011;23490;53.656;10.076;2023-11-19T09:35:00;22.13;;;4.07;;
37647;SDS011;23490;53.656;10.076;2023-11-19T09:37:25;20.48;;;5.68;;
37647;SDS011;23490;53.656;10.076;2023-11-19T09:39:51;15.80;;;4.57;;
37647;SDS011;23490;53.656;10.076;2023-11-19T09:42:16;12.27;;;4.53;;
37647;SDS011;23490;53.656;10.076;2023-11-19T09:44:42;13.82;;;3.33;;
37647;SDS011;23490;53.656;10.076;2023-11-19T09:47:08;19.27;;;3.60;;
37647;SDS011;23490;53.656;10.076;2023-11-19T09:49:36;20.92;;;3.80;;
37647;SDS011;23490;53.656;10.076;2023-11-19T09:52:01;19.58;;;3.80;;
37647;SDS011;23490;53.656;10.076;2023-11-19T09:54:27;22.42;;;4.28;;
37647;SDS011;23490;53.656;10.076;2023-11-19T09:56:53;17.27;;;4.50;;
37647;SDS011;23490;53.656;10.076;2023-11-19T09:59:25;19.05;;;3.78;;
37647;SDS011;23490;53.656;10.076;2023-11-19T10:01:51;10.88;;;3.42;;
37647;SDS011;23490;53.656;10.076;2023-11-19T10:04:17;17.52;;;3.67;;
37647;SDS011;23490;53.656;10.076;2023-11-19T10:06:44;14.75;;;4.10;;
37647;SDS011;23490;53.656;10.076;2023-11-19T10:09:09;17.50;;;3.00;;
37647;SDS011;23490;53.656;10.076;2023-11-19T10:11:34;19.65;;;4.10;;
37647;SDS011;23490;53.656;10.076;2023-11-19T10:14:00;16.90;;;2.92;;
37647;SDS011;23490;53.656;10.076;2023-11-19T10:16:29;19.05;;;5.38;;
37647;SDS011;23490;53.656;10.076;2023-11-19T10:18:58;23.17;;;3.55;;
37647;SDS011;23490;53.656;10.076;2023-11-19T10:21:24;19.50;;;4.82;;
37647;SDS011;23490;53.656;10.076;2023-11-19T10:23:50;22.95;;;3.50;;
37647;SDS011;23490;53.656;10.076;2023-11-19T10:26:17;18.60;;;4.47;;
37647;SDS011;23490;53.656;10.076;2023-11-19T10:28:43;15.98;;;3.42;;
37647;SDS011;23490;53.656;10.076;2023-11-19T10:31:20;12.02;;;2.88;;
37647;SDS011;23490;53.656;10.076;2023-11-19T10:33:51;11.05;;;3.03;;
37647;SDS011;23490;53.656;10.076;2023-11-19T10:36:17;9.55;;;2.35;;
37647;SDS011;23490;53.656;10.076;2023-11-19T10:38:55;15.77;;;3.58;;
37647;SDS011;23490;53.656;10.076;2023-11-19T10:41:31;18.80;;;4.10;;
37647;SDS011;23490;53.656;10.076;2023-11-19T10:43:58;19.80;;;3.92;;
37647;SDS011;23490;53.656;10.076;2023-11-19T10:46:35;12.13;;;2.95;;
37647;SDS011;23490;53.656;10.076;2023-11-19T10:49:03;14.63;;;3.08;;
37647;SDS011;23490;53.656;10.076;2023-11-19T10:51:28;14.13;;;3.00;;
37647;SDS011;23490;53.656;10.076;2023-11-19T10:53:54;14.85;;;3.13;;
37647;SDS011;23490;53.656;10.076;2023-11-19T10:56:32;15.30;;;3.63;;
37647;SDS011;23490;53.656;10.076;2023-11-19T10:58:59;11.68;;;2.95;;
37647;SDS011;23490;53.656;10.076;2023-11-19T11:01:26;12.88;;;4.65;;
37647;SDS011;23490;53.656;10.076;2023-11-19T11:03:59;19.40;;;3.92;;
37647;SDS011;23490;53.656;10.076;2023-11-19T11:06:25;14.88;;;2.55;;
37647;SDS011;23490;53.656;10.076;2023-11-19T11:08:52;12.70;;;3.53;;
37647;SDS011;23490;53.656;10.076;2023-11-19T11:11:18;12.55;;;3.63;;
37647;SDS011;23490;53.656;10.076;2023-11-19T11:13:46;11.95;;;3.08;;
37647;SDS011;23490;53.656;10.076;2023-11-19T11:16:14;16.15;;;5.15;;
37647;SDS011;23490;53.656;10.076;2023-11-19T11:18:44;17.92;;;4.28;;
37647;SDS011;23490;53.656;10.076;2023-11-19T11:21:11;14.32;;;2.90;;
37647;SDS011;23490;53.656;10.076;2023-11-19T11:29:34;22.95;;;4.75;;
37647;SDS011;23490;53.656;10.076;2023-11-19T11:32:30;16.65;;;3.30;;
37647;SDS011;23490;53.656;10.076;2023-11-19T11:37:50;16.75;;;2.92;;
37647;SDS011;23490;53.656;10.076;2023-11-19T11:40:23;21.40;;;3.88;;
37647;SDS011;23490;53.656;10.076;2023-11-19T11:42:48;24.83;;;4.97;;
37647;SDS011;23490;53.656;10.076;2023-11-19T11:45:16;11.57;;;2.78;;
37647;SDS011;23490;53.656;10.076;2023-11-19T11:50:08;22.23;;;4.30;;
37647;SDS011;23490;53.656;10.076;2023-11-19T11:55:34;24.40;;;4.63;;
37647;SDS011;23490;53.656;10.076;2023-11-19T11:58:02;14.40;;;2.72;;
37647;SDS011;23490;53.656;10.076;2023-11-19T12:02:55;20.48;;;2.78;;
37647;SDS011;23490;53.656;10.076;2023-11-19T12:05:21;11.73;;;2.92;;
37647;SDS011;23490;53.656;10.076;2023-11-19T12:07:54;11.32;;;2.30;;
37647;SDS011;23490;53.656;10.076;2023-11-19T12:10:20;13.55;;;3.33;;
37647;SDS011;23490;53.656;10.076;2023-11-19T12:12:47;15.40;;;3.83;;
37647;SDS011;23490;53.656;10.076;2023-11-19T12:15:12;10.07;;;3.67;;
37647;SDS011;23490;53.656;10.076;2023-11-19T12:20:14;18.77;;;4.13;;
37647;SDS011;23490;53.656;10.076;2023-11-19T12:22:42;14.40;;;3.72;;
37647;SDS011;23490;53.656;10.076;2023-11-19T12:25:09;16.02;;;3.92;;
37647;SDS011;23490;53.656;10.076;2023-11-19T12:27:41;15.40;;;4.00;;
37647;SDS011;23490;53.656;10.076;2023-11-19T12:30:09;9.00;;;2.65;;
37647;SDS011;23490;53.656;10.076;2023-11-19T12:32:41;14.70;;;2.55;;
37647;SDS011;23490;53.656;10.076;2023-11-19T12:35:10;17.42;;;3.78;;
37647;SDS011;23490;53.656;10.076;2023-11-19T12:37:43;14.02;;;3.03;;
37647;SDS011;23490;53.656;10.076;2023-11-19T12:40:16;17.23;;;4.30;;
37647;SDS011;23490;53.656;10.076;2023-11-19T12:42:47;14.48;;;3.35;;
37647;SDS011;23490;53.656;10.076;2023-11-19T12:45:16;19.10;;;3.95;;
37647;SDS011;23490;53.656;10.076;2023-11-19T12:47:44;15.77;;;3.20;;
37647;SDS011;23490;53.656;10.076;2023-11-19T12:50:09;16.33;;;3.22;;
37647;SDS011;23490;53.656;10.076;2023-11-19T12:52:35;21.42;;;2.53;;
37647;SDS011;23490;53.656;10.076;2023-11-19T12:55:02;12.38;;;3.58;;
37647;SDS011;23490;53.656;10.076;2023-11-19T12:57:38;17.38;;;3.97;;
37647;SDS011;23490;53.656;10.076;2023-11-19T13:00:05;9.23;;;2.08;;
37647;SDS011;23490;53.656;10.076;2023-11-19T13:02:44;12.55;;;2.78;;
37647;SDS011;23490;53.656;10.076;2023-11-19T13:05:27;12.02;;;2.58;;
37647;SDS011;23490;53.656;10.076;2023-11-19T13:08:02;11.80;;;3.35;;
37647;SDS011;23490;53.656;10.076;2023-11-19T13:10:29;12.13;;;3.15;;
37647;SDS011;23490;53.656;10.076;2023-11-19T13:13:08;19.92;;;3.03;;
37647;SDS011;23490;53.656;10.076;2023-11-19T13:15:34;7.82;;;2.45;;
37647;SDS011;23490;53.656;10.076;2023-11-19T13:18:00;13.27;;;3.72;;
37647;SDS011;23490;53.656;10.076;2023-11-19T13:20:26;13.18;;;3.20;;
37647;SDS011;23490;53.656;10.076;2023-11-19T13:25:24;10.38;;;2.55;;
37647;SDS011;23490;53.656;10.076;2023-11-19T13:27:50;22.33;;;3.33;;
37647;SDS011;23490;53.656;10.076;2023-11-19T13:30:15;14.50;;;3.13;;
37647;SDS011;23490;53.656;10.076;2023-11-19T13:32:41;16.65;;;3.78;;
37647;SDS011;23490;53.656;10.076;2023-11-19T13:35:07;11.90;;;3.65;;
37647;SDS011;23490;53.656;10.076;2023-11-19T13:37:34;17.17;;;3.42;;
37647;SDS011;23490;53.656;10.076;2023-11-19T13:39:59;11.50;;;2.88;;
37647;SDS011;23490;53.656;10.076;2023-11-19T13:42:25;18.42;;;3.22;;
37647;SDS011;23490;53.656;10.076;2023-11-19T13:44:50;12.75;;;2.83;;
37647;SDS011;23490;53.656;10.076;2023-11-19T13:47:15;13.57;;;2.25;;
37647;SDS011;23490;53.656;10.076;2023-11-19T13:49:41;14.32;;;3.45;;
37647;SDS011;23490;53.656;10.076;2023-11-19T13:52:06;10.73;;;2.28;;
37647;SDS011;23490;53.656;10.076;2023-11-19T13:54:31;11.52;;;3.33;;
37647;SDS011;23490;53.656;10.076;2023-11-19T13:56:57;14.60;;;2.83;;
37647;SDS011;23490;53.656;10.076;2023-11-19T13:59:23;9.63;;;2.38;;
37647;SDS011;23490;53.656;10.076;2023-11-19T14:01:49;16.05;;;3.58;;
37647;SDS011;23490;53.656;10.076;2023-11-19T14:04:14;16.92;;;3.42;;
37647;SDS011;23490;53.656;10.076;2023-11-19T14:06:40;12.25;;;3.38;;
37647;SDS011;23490;53.656;10.076;2023-11-19T14:09:06;11.77;;;3.00;;
37647;SDS011;23490;53.656;10.076;2023-11-19T14:11:32;9.85;;;2.58;;
37647;SDS011;23490;53.656;10.076;2023-11-19T14:14:00;13.07;;;3.03;;
37647;SDS011;23490;53.656;10.076;2023-11-19T14:16:26;12.60;;;2.33;;
37647;SDS011;23490;53.656;10.076;2023-11-19T14:18:52;13.82;;;3.55;;
37647;SDS011;23490;53.656;10.076;2023-11-19T14:21:17;20.30;;;2.92;;
37647;SDS011;23490;53.656;10.076;2023-11-19T14:23:43;12.38;;;3.10;;
37647;SDS011;23490;53.656;10.076;2023-11-19T14:26:08;10.27;;;2.00;;
37647;SDS011;23490;53.656;10.076;2023-11-19T14:28:33;12.60;;;2.60;;
37647;SDS011;23490;53.656;10.076;2023-11-19T14:30:59;13.90;;;2.40;;
37647;SDS011;23490;53.656;10.076;2023-11-19T14:33:24;15.35;;;2.28;;
37647;SDS011;23490;53.656;10.076;2023-11-19T14:35:50;11.10;;;2.20;;
37647;SDS011;23490;53.656;10.076;2023-11-19T14:38:15;12.00;;;1.80;;
37647;SDS011;23490;53.656;10.076;2023-11-19T14:40:41;4.78;;;2.55;;
37647;SDS011;23490;53.656;10.076;2023-11-19T14:43:07;10.75;;;2.50;;
37647;SDS011;23490;53.656;10.076;2023-11-19T14:45:35;16.63;;;3.55;;
37647;SDS011;23490;53.656;10.076;2023-11-19T14:48:01;6.20;;;1.70;;
37647;SDS011;23490;53.656;10.076;2023-11-19T14:50:26;9.75;;;1.73;;